Time;durP1;ratioP1;P1;durP2;ratioP2;P2;SDS_P1;SDS_P2;PMS_P1;PMS_P2;Temp;Humidity;BMP_temperature;BMP_pressure;BME280_temperature;BME280_humidity;BME280_pressure;Samples;Min_cycle;Max_cycle;Signal;HPM_P1;HPM_P2
2023/01/16 17:22:10;;;;;;;4.18;2.42;;;4.80;99.90;;;;;;5110412;27;20337;-69
2023/01/16 17:24:36;;;;;;;3.90;2.03;;;4.80;99.90;;;;;;5109507;28;20020;-69
2023/01/16 17:27:07;;;;;;;2.70;2.00;;;4.90;99.90;;;;;;5108518;28;20078;-69
2023/01/16 17:29:33;;;;;;;3.20;2.17;;;4.90;99.90;;;;;;5067740;28;20036;-70
2023/01/16 17:32:04;;;;;;;3.70;2.53;;;5.10;99.90;;;;;;5068867;28;20059;-70
2023/01/16 17:34:30;;;;;;;5.68;3.22;;;5.10;99.90;;;;;;5068124;28;20528;-68
2023/01/16 17:36:55;;;;;;;5.72;3.00;;;5.20;99.90;;;;;;5068875;28;20105;-69
2023/01/16 17:39:21;;;;;;;5.80;3.55;;;5.20;99.90;;;;;;5095745;28;20106;-70
2023/01/16 17:47:03;;;;;;;4.30;2.88;;;5.40;99.90;;;;;;5068265;28;20047;-71
2023/01/16 17:49:28;;;;;;;5.55;3.15;;;5.40;99.90;;;;;;5099091;28;20111;-70
2023/01/16 17:51:54;;;;;;;5.88;3.65;;;5.50;99.90;;;;;;5108144;28;20119;-69
2023/01/16 17:57:04;;;;;;;7.55;4.50;;;5.50;99.90;;;;;;5108607;28;20026;-69
2023/01/16 17:59:29;;;;;;;6.35;4.40;;;5.60;99.90;;;;;;5108668;28;20028;-67
2023/01/16 18:01:56;;;;;;;7.38;4.35;;;5.50;99.90;;;;;;5106973;28;20481;-69
2023/01/16 18:04:22;;;;;;;6.68;4.03;;;5.60;99.90;;;;;;5106903;28;20042;-67
2023/01/16 18:06:48;;;;;;;6.63;4.15;;;5.60;99.90;;;;;;5108984;28;20031;-69
2023/01/16 18:09:14;;;;;;;8.15;4.68;;;5.60;99.90;;;;;;5106657;28;20020;-69
2023/01/16 18:17:21;;;;;;;9.43;5.13;;;5.60;99.90;;;;;;5108029;28;20089;-67
2023/01/16 18:19:51;;;;;;;9.27;5.38;;;5.70;99.90;;;;;;5108396;28;20065;-68
2023/01/16 18:22:16;;;;;;;9.90;6.38;;;5.70;99.90;;;;;;5107816;28;20123;-66
2023/01/16 18:24:43;;;;;;;9.63;6.32;;;5.70;99.90;;;;;;5108009;28;20099;-70
2023/01/16 18:27:11;;;;;;;11.77;6.60;;;5.70;99.90;;;;;;5107337;28;20028;-69
2023/01/16 18:29:37;;;;;;;10.32;6.20;;;5.70;99.90;;;;;;5108291;28;20047;-70
2023/01/16 18:32:20;;;;;;;10.50;6.30;;;5.70;99.90;;;;;;5100905;28;20038;-68
2023/01/16 18:34:59;;;;;;;12.95;6.88;;;5.70;99.90;;;;;;5094267;28;20412;-68
2023/01/16 19:01:54;;;;;;;11.13;7.38;;;5.70;99.90;;;;;;5092942;28;20078;-69
2023/01/16 19:02:37;;;;;;;14.73;7.38;;;5.70;99.90;;;;;;5094781;28;20098;-70
2023/01/16 19:05:04;;;;;;;15.00;7.82;;;5.70;99.90;;;;;;5093389;28;20024;-69
2023/01/16 19:07:29;;;;;;;13.18;7.47;;;5.70;99.90;;;;;;5093669;28;20016;-69
2023/01/16 19:09:59;;;;;;;12.95;7.03;;;5.60;99.90;;;;;;5094761;28;20103;-69
2023/01/16 19:12:29;;;;;;;12.82;7.38;;;5.60;99.90;;;;;;5093820;28;20020;-69
2023/01/16 19:14:55;;;;;;;12.85;6.93;;;5.50;99.90;;;;;;5094232;28;20062;-69
2023/01/16 19:17:21;;;;;;;14.13;7.30;;;5.40;99.90;;;;;;5093139;28;20042;-69
2023/01/16 19:19:46;;;;;;;9.05;5.63;;;5.30;99.90;;;;;;5093148;28;20020;-68
2023/01/16 19:22:12;;;;;;;10.13;6.30;;;5.20;99.90;;;;;;5093703;28;20107;-69
2023/01/16 19:24:38;;;;;;;11.40;6.18;;;5.10;99.90;;;;;;5093094;28;20056;-71
2023/01/16 19:27:04;;;;;;;8.20;5.15;;;4.90;99.90;;;;;;5093132;28;20024;-70
2023/01/16 19:29:30;;;;;;;8.55;5.32;;;4.80;99.90;;;;;;5094100;28;20051;-71
2023/01/16 19:31:59;;;;;;;8.15;5.32;;;4.70;99.90;;;;;;5092395;28;20060;-70
2023/01/16 19:34:25;;;;;;;9.45;6.15;;;4.50;99.90;;;;;;5089157;28;20070;-69
2023/01/16 19:36:52;;;;;;;9.40;5.90;;;4.50;99.90;;;;;;5081747;28;20028;-69
2023/01/16 19:39:17;;;;;;;9.00;5.53;;;4.30;99.90;;;;;;5072325;28;20096;-68
2023/01/16 19:47:12;;;;;;;8.35;5.13;;;4.10;99.90;;;;;;5072679;28;20074;-70
2023/01/16 19:49:40;;;;;;;7.38;4.80;;;4.00;99.90;;;;;;5069842;28;20016;-70
2023/01/16 19:52:07;;;;;;;7.35;4.38;;;4.00;99.90;;;;;;5072430;28;20016;-70
2023/01/16 19:54:32;;;;;;;7.18;4.15;;;3.90;99.90;;;;;;5072174;28;20017;-68
2023/01/16 19:56:58;;;;;;;6.32;3.78;;;3.90;99.90;;;;;;5092496;28;20035;-69
2023/01/16 19:59:24;;;;;;;6.03;3.90;;;3.90;99.90;;;;;;5088524;28;20141;-69
2023/01/16 20:01:54;;;;;;;5.57;3.63;;;3.90;99.90;;;;;;5092760;28;20427;-70
2023/01/16 20:04:21;;;;;;;6.30;3.75;;;3.90;99.90;;;;;;5092670;28;20035;-68
2023/01/16 20:06:46;;;;;;;6.35;3.47;;;3.90;99.90;;;;;;5093502;28;20043;-69
2023/01/16 20:09:12;;;;;;;6.07;3.97;;;3.90;99.90;;;;;;5090848;28;20365;-68
2023/01/16 20:14:22;;;;;;;5.63;3.30;;;3.90;99.90;;;;;;5073179;28;20157;-69
2023/01/16 20:16:48;;;;;;;5.60;3.58;;;3.90;99.90;;;;;;5082681;28;20534;-70
2023/01/16 20:19:13;;;;;;;5.38;3.00;;;3.90;99.90;;;;;;5093553;28;20080;-70
2023/01/16 20:21:41;;;;;;;6.03;3.28;;;3.90;99.90;;;;;;5093084;28;20404;-70
2023/01/16 20:24:07;;;;;;;4.88;3.05;;;3.90;99.90;;;;;;5092665;28;20033;-68
2023/01/16 20:26:34;;;;;;;4.95;2.67;;;4.00;99.90;;;;;;5092097;28;20017;-70
2023/01/16 20:29:01;;;;;;;4.68;3.05;;;4.00;99.90;;;;;;5093336;28;20022;-71
2023/01/16 20:31:28;;;;;;;4.28;2.88;;;4.00;99.90;;;;;;5090559;28;20026;-70
2023/01/16 20:33:57;;;;;;;4.90;2.92;;;4.00;99.90;;;;;;5092440;28;20027;-70
2023/01/16 20:36:24;;;;;;;2.85;1.98;;;4.00;99.90;;;;;;5092519;28;20074;-70
2023/01/16 20:38:50;;;;;;;3.92;2.42;;;4.00;99.90;;;;;;5091821;28;20568;-71
2023/01/16 20:46:48;;;;;;;4.85;2.67;;;4.00;99.90;;;;;;5092927;28;20089;-70
2023/01/16 20:49:14;;;;;;;4.35;2.42;;;4.10;99.90;;;;;;5092436;28;20020;-69
2023/01/16 20:51:40;;;;;;;6.68;3.08;;;4.00;99.90;;;;;;5092381;28;20024;-70
2023/01/16 20:54:05;;;;;;;4.65;2.97;;;4.00;99.90;;;;;;5092205;28;20050;-70
2023/01/16 20:56:31;;;;;;;5.55;3.22;;;4.10;99.90;;;;;;5091280;28;20031;-69
2023/01/16 20:58:57;;;;;;;5.93;3.38;;;4.10;99.90;;;;;;5091587;28;20032;-71
2023/01/16 21:01:23;;;;;;;6.32;3.83;;;4.10;99.90;;;;;;5092475;28;20396;-71
2023/01/16 21:03:49;;;;;;;6.50;3.85;;;4.10;99.90;;;;;;5092827;28;20373;-70
2023/01/16 21:06:14;;;;;;;6.45;3.85;;;4.10;99.90;;;;;;5091812;28;20038;-69
2023/01/16 21:08:44;;;;;;;8.10;4.22;;;4.10;99.90;;;;;;5092558;28;20035;-70
2023/01/16 21:14:09;;;;;;;5.57;3.92;;;4.10;99.90;;;;;;5092326;28;20112;-71
2023/01/16 21:22:13;;;;;;;4.75;3.35;;;4.20;99.90;;;;;;5091873;28;20067;-70
2023/01/16 21:24:39;;;;;;;6.25;4.00;;;4.20;99.90;;;;;;5079665;28;20449;-70
2023/01/16 21:27:06;;;;;;;5.55;3.80;;;4.20;99.90;;;;;;5090992;28;20025;-70
2023/01/16 21:29:34;;;;;;;5.75;3.72;;;4.20;99.90;;;;;;5090679;28;20457;-70
2023/01/16 21:32:00;;;;;;;7.22;3.80;;;4.20;99.90;;;;;;5092462;28;20019;-71
2023/01/16 21:34:26;;;;;;;5.18;3.00;;;4.20;99.90;;;;;;5090238;28;20032;-71
2023/01/16 21:36:52;;;;;;;5.35;3.55;;;4.20;99.90;;;;;;5091241;28;20425;-70
2023/01/16 21:39:17;;;;;;;5.30;3.40;;;4.20;99.90;;;;;;5091834;28;20490;-70
2023/01/16 21:47:12;;;;;;;4.60;3.15;;;4.30;99.90;;;;;;5091174;28;20034;-68
2023/01/16 21:49:38;;;;;;;4.53;3.17;;;4.30;99.90;;;;;;5092092;28;20333;-69
2023/01/16 21:52:04;;;;;;;4.68;3.40;;;4.30;99.90;;;;;;5091790;28;20544;-69
2023/01/16 21:54:29;;;;;;;4.90;3.20;;;4.30;99.90;;;;;;5091224;28;20028;-69
2023/01/16 21:56:55;;;;;;;4.45;3.10;;;4.30;99.90;;;;;;5090562;28;20400;-68
2023/01/16 21:59:21;;;;;;;8.70;3.85;;;4.30;99.90;;;;;;5091294;28;20090;-68
2023/01/16 22:01:46;;;;;;;5.32;3.30;;;4.30;99.90;;;;;;5091441;28;20028;-69
2023/01/16 22:04:12;;;;;;;4.43;2.67;;;4.30;99.90;;;;;;5092434;28;20043;-69
2023/01/16 22:06:38;;;;;;;5.78;3.20;;;4.30;99.90;;;;;;5091885;28;20491;-68
2023/01/16 22:09:05;;;;;;;4.68;2.97;;;4.30;99.90;;;;;;5093482;28;20069;-69
2023/01/16 22:20:21;;;;;;;6.95;3.65;;;4.40;99.90;;;;;;5095146;28;20519;-69
2023/01/16 22:22:49;;;;;;;5.20;3.30;;;4.40;99.90;;;;;;5094449;28;20040;-69
2023/01/16 22:25:16;;;;;;;7.03;3.45;;;4.40;99.90;;;;;;5093266;28;20439;-70
2023/01/16 22:27:42;;;;;;;5.70;3.33;;;4.40;99.90;;;;;;5095372;28;20531;-69
2023/01/16 22:30:09;;;;;;;6.50;3.55;;;4.30;99.90;;;;;;5093363;28;20108;-69
2023/01/16 22:32:35;;;;;;;6.28;3.47;;;4.30;99.90;;;;;;5095022;28;20012;-69
2023/01/16 22:35:00;;;;;;;10.10;3.75;;;4.30;99.90;;;;;;5095292;28;20028;-69
2023/01/16 22:37:26;;;;;;;7.05;3.78;;;4.20;99.90;;;;;;5094300;28;20032;-69
2023/01/16 22:39:51;;;;;;;9.75;4.03;;;4.20;99.90;;;;;;5093738;28;20067;-70
2023/01/16 22:42:18;;;;;;;5.35;3.70;;;4.20;99.90;;;;;;5093726;28;20392;-68
2023/01/16 22:47:29;;;;;;;4.85;3.35;;;4.20;99.90;;;;;;5095463;28;20074;-69
2023/01/16 22:49:55;;;;;;;7.40;4.15;;;4.20;99.90;;;;;;5094221;28;20025;-69
2023/01/16 22:52:21;;;;;;;6.05;4.05;;;4.20;99.90;;;;;;5095011;28;20035;-68
2023/01/16 22:54:47;;;;;;;5.82;3.92;;;4.20;99.90;;;;;;5095089;28;20028;-68
2023/01/16 22:57:13;;;;;;;7.78;4.55;;;4.30;99.90;;;;;;5094372;28;20416;-69
2023/01/16 22:59:39;;;;;;;5.53;3.65;;;4.30;99.90;;;;;;5094374;28;20063;-69
2023/01/16 23:02:06;;;;;;;7.50;3.40;;;4.30;99.90;;;;;;5093125;28;20063;-68
2023/01/16 23:04:32;;;;;;;4.72;3.10;;;4.30;99.90;;;;;;5092639;28;20027;-70
